Terminal Aerodrome Forecast
Issued by NWS Cleveland, OH

Home | Current Version | Previous Version | Graphics & Text | Print | Product List | Glossary Off
Versions: 1 2 3 4 5 6 7 8 9 10 11 12 13 14 15 16 17 18

000
FTUS41 KCLE 231733
TAFMFD
TAF
KMFD 231733Z 2318/2418 13010KT P6SM SCT250
     FM240600 18012KT P6SM -SHRA OVC040
     FM240900 19014KT P6SM BKN060
     FM241600 20015G25KT P6SM OVC030=

USA.gov is the U.S. government's official web portal to all federal, state and local government web resources and services.